Gerd Maersk — OYGM2 — position and weather

sailwx.info

Track history (hours):
 
Tides and Currents Weather Stations Pressure Air Temp Water Temp Dewpoint Dewpoint Depression Visibility Wind Speed Wind Dir Waves Ship Positions

Gerd Maersk

Last reported at 2015-May-24 10:32 UTC. Time now 2015-May-29 22:27 UTC.
Position N 01°13' E 103°53'.

Length 367 m; draft 14.1 m.

Type: Ship (hazmat cat A). MMSI: 220415000.

Date/timePositionNaut miles runAvg speedWind from/ knotsBaromVisibWave heightAir tempDewpointWater temp
2015-May-24 10:32N 01°13' E 103°53'  
2015-May-21 05:33N 22°18' E 114°06'1110.3
2015-May-21 04:28N 22°22' E 113°54'6 6.6
2015-May-21 03:32N 22°28' E 113°52'0 0.0
2015-May-20 17:33N 22°28' E 113°53'15 7.6
2015-May-20 15:33N 22°18' E 114°06'16 8.2
2015-May-20 13:33N 22°09' E 114°20'21 1.2
2015-May-19 19:29N 22°19' E 114°41'18820.6
2015-May-19 10:20N 23°32' E 117°49'1822.3
2015-May-19 09:33N 23°43' E 118°04'2222.2
2015-May-19 08:33N 23°59' E 118°21'2322.4
2015-May-19 07:32N 24°14' E 118°40'3022.4
2015-May-19 06:11N 24°34' E 119°05'1421.5
2015-May-19 05:31N 24°42' E 119°18'38619.3
2015-May-18 09:31N 30°32' E 122°22'1313.6
2015-May-18 08:32N 30°35' E 122°07'4 3.2
2015-May-18 07:11N 30°38' E 122°03'0 0.0
2015-May-17 23:21N 30°38' E 122°03'0 0.0
2015-May-17 22:33N 30°38' E 122°03'0 0.0
2015-May-17 19:30N 30°38' E 122°03'0 0.0
2015-May-17 18:15N 30°38' E 122°03'0 0.0
2015-May-17 17:27N 30°38' E 122°03'0 0.0
2015-May-17 16:30N 30°38' E 122°03'5 5.0
2015-May-17 15:33N 30°35' E 122°08'10 9.8
2015-May-17 14:33N 30°33' E 122°19'5 5.2
2015-May-17 13:33N 30°32' E 122°25'18 3.2
2015-May-17 08:09N 30°26' E 122°44'0 0.0
2015-May-17 07:33N 30°26' E 122°44'0 0.0
2015-May-17 06:27N 30°26' E 122°44'0 0.1
2015-May-17 05:33N 30°26' E 122°44'0 0.0
2015-May-17 04:30N 30°26' E 122°44'0 0.2
2015-May-17 03:29N 30°26' E 122°44'0 0.1
2015-May-17 02:17N 30°26' E 122°44'0 0.1
2015-May-16 21:33N 30°26' E 122°44'0 0.0
2015-May-16 17:21N 30°26' E 122°44'0 0.1
2015-May-16 15:19N 30°26' E 122°44'0 0.1
2015-May-16 13:33N 30°26' E 122°44'0 0.1
2015-May-16 08:10N 30°26' E 122°44'0 0.1
2015-May-16 07:31N 30°26' E 122°44'0 0.0
2015-May-16 06:25N 30°26' E 122°44'0 0.0
2015-May-16 05:24N 30°26' E 122°44'3 3.2
2015-May-16 04:32N 30°24' E 122°46'8 7.7
2015-May-16 03:30N 30°21' E 122°55'8 8.3
2015-May-16 02:32N 30°19' E 123°04'45 7.5
2015-May-15 20:28N 29°40' E 122°37'8 8.2
2015-May-15 19:30N 29°41' E 122°28'1010.5
2015-May-15 18:33N 29°45' E 122°18'1312.8
2015-May-15 17:33N 29°55' E 122°08'5 5.3
2015-May-15 16:33N 29°53' E 122°03'0 0.0
2015-May-15 15:24N 29°53' E 122°03'0 0.0
2015-May-15 14:30N 29°53' E 122°03'0 0.0
2015-May-15 13:30N 29°53' E 122°03'0 0.0
2015-May-15 12:30N 29°53' E 122°03'0 0.0
2015-May-15 11:21N 29°53' E 122°03'0 0.0
2015-May-15 10:32N 29°53' E 122°03'0 0.0
2015-May-15 09:32N 29°53' E 122°03'0 0.0
2015-May-15 08:20N 29°53' E 122°03'0 0.0
2015-May-15 07:20N 29°53' E 122°03'0 0.0
2015-May-15 06:32N 29°53' E 122°03'0 0.0
2015-May-15 05:32N 29°53' E 122°03'0 0.0
2015-May-15 04:32N 29°53' E 122°03'0 0.0
2015-May-15 03:23N 29°53' E 122°03'0 0.0
2015-May-15 02:33N 29°53' E 122°03'0 0.0
2015-May-15 01:30N 29°53' E 122°03'1 1.1
2015-May-15 00:33N 29°54' E 122°04'1010.1
2015-May-14 23:33N 29°49' E 122°14'7 7.4
2015-May-14 22:33N 29°46' E 122°22'1211.7
2015-May-14 21:33N 29°50' E 122°35'1711.8
2015-May-14 20:08N 29°58' E 122°52'  
Track history (hours):
 
Tides and Currents Weather Stations Pressure Air Temp Water Temp Dewpoint Dewpoint Depression Visibility Wind Speed Wind Dir Waves Ship Positions

Gerd Maersk

Last reported at 2015-May-24 10:32 UTC. Time now 2015-May-29 22:27 UTC.
Position N 01°13' E 103°53'.

Length 367 m; draft 14.1 m.

Type: Ship (hazmat cat A). MMSI: 220415000.

Date/timePositionNaut miles runAvg speedWind from/ knotsBaromVisibWave heightAir tempDewpointWater temp
2015-May-24 10:32N 01°13' E 103°53'  
2015-May-21 05:33N 22°18' E 114°06'1110.3
2015-May-21 04:28N 22°22' E 113°54'6 6.6
2015-May-21 03:32N 22°28' E 113°52'0 0.0
2015-May-20 17:33N 22°28' E 113°53'15 7.6
2015-May-20 15:33N 22°18' E 114°06'16 8.2
2015-May-20 13:33N 22°09' E 114°20'21 1.2
2015-May-19 19:29N 22°19' E 114°41'18820.6
2015-May-19 10:20N 23°32' E 117°49'1822.3
2015-May-19 09:33N 23°43' E 118°04'2222.2
2015-May-19 08:33N 23°59' E 118°21'2322.4
2015-May-19 07:32N 24°14' E 118°40'3022.4
2015-May-19 06:11N 24°34' E 119°05'1421.5
2015-May-19 05:31N 24°42' E 119°18'38619.3
2015-May-18 09:31N 30°32' E 122°22'1313.6
2015-May-18 08:32N 30°35' E 122°07'4 3.2
2015-May-18 07:11N 30°38' E 122°03'0 0.0
2015-May-17 23:21N 30°38' E 122°03'0 0.0
2015-May-17 22:33N 30°38' E 122°03'0 0.0
2015-May-17 19:30N 30°38' E 122°03'0 0.0
2015-May-17 18:15N 30°38' E 122°03'0 0.0
2015-May-17 17:27N 30°38' E 122°03'0 0.0
2015-May-17 16:30N 30°38' E 122°03'5 5.0
2015-May-17 15:33N 30°35' E 122°08'10 9.8
2015-May-17 14:33N 30°33' E 122°19'5 5.2
2015-May-17 13:33N 30°32' E 122°25'18 3.2
2015-May-17 08:09N 30°26' E 122°44'0 0.0
2015-May-17 07:33N 30°26' E 122°44'0 0.0
2015-May-17 06:27N 30°26' E 122°44'0 0.1
2015-May-17 05:33N 30°26' E 122°44'0 0.0
2015-May-17 04:30N 30°26' E 122°44'0 0.2
2015-May-17 03:29N 30°26' E 122°44'0 0.1
2015-May-17 02:17N 30°26' E 122°44'0 0.1
2015-May-16 21:33N 30°26' E 122°44'0 0.0
2015-May-16 17:21N 30°26' E 122°44'0 0.1
2015-May-16 15:19N 30°26' E 122°44'0 0.1
2015-May-16 13:33N 30°26' E 122°44'0 0.1
2015-May-16 08:10N 30°26' E 122°44'0 0.1
2015-May-16 07:31N 30°26' E 122°44'0 0.0
2015-May-16 06:25N 30°26' E 122°44'0 0.0
2015-May-16 05:24N 30°26' E 122°44'3 3.2
2015-May-16 04:32N 30°24' E 122°46'8 7.7
2015-May-16 03:30N 30°21' E 122°55'8 8.3
2015-May-16 02:32N 30°19' E 123°04'45 7.5
2015-May-15 20:28N 29°40' E 122°37'8 8.2
2015-May-15 19:30N 29°41' E 122°28'1010.5
2015-May-15 18:33N 29°45' E 122°18'1312.8
2015-May-15 17:33N 29°55' E 122°08'5 5.3
2015-May-15 16:33N 29°53' E 122°03'0 0.0
2015-May-15 15:24N 29°53' E 122°03'0 0.0
2015-May-15 14:30N 29°53' E 122°03'0 0.0
2015-May-15 13:30N 29°53' E 122°03'0 0.0
2015-May-15 12:30N 29°53' E 122°03'0 0.0
2015-May-15 11:21N 29°53' E 122°03'0 0.0
2015-May-15 10:32N 29°53' E 122°03'0 0.0
2015-May-15 09:32N 29°53' E 122°03'0 0.0
2015-May-15 08:20N 29°53' E 122°03'0 0.0
2015-May-15 07:20N 29°53' E 122°03'0 0.0
2015-May-15 06:32N 29°53' E 122°03'0 0.0
2015-May-15 05:32N 29°53' E 122°03'0 0.0
2015-May-15 04:32N 29°53' E 122°03'0 0.0
2015-May-15 03:23N 29°53' E 122°03'0 0.0
2015-May-15 02:33N 29°53' E 122°03'0 0.0
2015-May-15 01:30N 29°53' E 122°03'1 1.1
2015-May-15 00:33N 29°54' E 122°04'1010.1
2015-May-14 23:33N 29°49' E 122°14'7 7.4
2015-May-14 22:33N 29°46' E 122°22'1211.7
2015-May-14 21:33N 29°50' E 122°35'1711.8
2015-May-14 20:08N 29°58' E 122°52'  

Dump ship's entire track history